Terminal Aerodrome Forecast
Issued by NWS Jackson, MS

Home | Current Version | Previous Version | Text Only | Print | Product List | Glossary On
Versions: 1 2 3 4 5 6 7 8 9 10 11 12 13
000
FTUS44 KJAN 291120
TAFHBG
TAF
KHBG 291120Z 2912/3012 15005KT P6SM SCT040 BKN120
     FM292000 20007KT P6SM -TSRA BKN030CB BKN045
     FM300100 19003KT P6SM OVC050=

USA.gov is the U.S. government's official web portal to all federal, state and local government web resources and services.